Time,TemperatureF,DewpointF,PressureIn,WindDirection,WindDirectionDegrees,WindSpeedMPH,WindSpeedGustMPH,Humidity,HourlyPrecipIn,Conditions,Clouds,dailyrainin,SoftwareType,DateUTC
2013-08-26 00:14:00,64.0,58.0,30.18,SW,227,0.0,-999.0,82,-99.99,,,-99.99,,2013-08-26 04:14:00,
2013-08-26 00:53:00,64.0,58.0,30.16,SW,216,0.0,-999.0,81,-99.99,,,-99.99,,2013-08-26 04:53:00,
2013-08-26 01:23:00,63.0,59.0,30.17,WSW,237,0.0,-999.0,87,-99.99,,,-99.99,,2013-08-26 05:23:00,
2013-08-26 01:52:00,63.0,58.0,30.17,SW,236,0.0,-999.0,85,-99.99,,,-99.99,,2013-08-26 05:52:00,
2013-08-26 02:12:00,63.0,59.0,30.17,South,185,0.0,-999.0,86,-99.99,,,-99.99,,2013-08-26 06:12:00,
2013-08-26 02:22:00,63.0,60.0,30.18,SSW,202,0.0,-999.0,90,-99.99,,,-99.99,,2013-08-26 06:22:00,
2013-08-26 02:42:00,62.0,60.0,30.16,SSW,202,0.0,-999.0,94,-99.99,,,-99.99,,2013-08-26 06:42:00,
2013-08-26 02:52:00,61.0,60.0,30.14,South,176,1.0,-999.0,96,-99.99,,,-99.99,,2013-08-26 06:52:00,
2013-08-26 03:22:00,60.0,59.0,30.13,East,80,0.0,-999.0,97,-99.99,,,-99.99,,2013-08-26 07:22:00,
2013-08-26 03:52:00,60.0,59.0,30.11,ESE,120,0.0,-999.0,98,-99.99,,,-99.99,,2013-08-26 07:52:00,
2013-08-26 04:12:00,60.0,59.0,30.12,ESE,120,0.0,-999.0,98,-99.99,,,-99.99,,2013-08-26 08:12:00,
2013-08-26 04:22:00,60.0,59.0,30.13,North,359,0.0,-999.0,98,-99.99,,,-99.99,,2013-08-26 08:22:00,
2013-08-26 04:52:00,60.0,59.0,30.13,WNW,299,0.0,-999.0,98,-99.99,,,-99.99,,2013-08-26 08:52:00,
2013-08-26 05:22:00,60.0,60.0,30.13,NE,40,0.0,-999.0,99,-99.99,,,-99.99,,2013-08-26 09:22:00,
2013-08-26 05:54:00,59.0,59.0,30.08,ENE,61,0.0,-999.0,99,-99.99,,,-99.99,,2013-08-26 09:54:00,
2013-08-26 06:23:00,59.0,59.0,30.07,SE,145,0.0,-999.0,99,-99.99,,,-99.99,,2013-08-26 10:23:00,
2013-08-26 06:52:00,59.0,59.0,30.06,SE,145,0.0,-999.0,99,-99.99,,,-99.99,,2013-08-26 10:52:00,
2013-08-26 07:22:00,59.0,59.0,30.06,SSE,150,0.0,-999.0,100,-99.99,,,-99.99,,2013-08-26 11:22:00,
2013-08-26 07:52:00,59.0,59.0,30.06,SSE,151,0.0,-999.0,100,-99.99,,,-99.99,,2013-08-26 11:52:00,
2013-08-26 08:22:00,60.0,60.0,30.05,SSE,155,0.0,-999.0,100,-99.99,,,-99.99,,2013-08-26 12:22:00,
2013-08-26 08:52:00,61.0,61.0,30.05,SW,233,0.0,-999.0,100,-99.99,,,-99.99,,2013-08-26 12:52:00,
2013-08-26 09:22:00,63.0,63.0,30.03,SSW,206,0.0,-999.0,100,-99.99,,,-99.99,,2013-08-26 13:22:00,
2013-08-26 09:52:00,63.0,62.0,30.03,South,185,0.0,-999.0,98,-99.99,,,-99.99,,2013-08-26 13:52:00,
2013-08-26 10:22:00,65.0,63.0,30.01,SSW,193,0.0,-999.0,92,-99.99,,,-99.99,,2013-08-26 14:22:00,
2013-08-26 10:52:00,67.0,63.0,30.01,NW,313,0.0,-999.0,88,-99.99,,,-99.99,,2013-08-26 14:52:00,
2013-08-26 11:22:00,70.0,65.0,30.03,NW,323,0.0,-999.0,85,-99.99,,,-99.99,,2013-08-26 15:22:00,
2013-08-26 11:47:00,70.0,66.0,30.03,North,350,0.0,-999.0,86,-99.99,,,-99.99,,2013-08-26 15:47:00,
2013-08-26 11:59:00,71.0,65.0,30.02,North,350,0.0,-999.0,80,-99.99,,,-99.99,,2013-08-26 15:59:00,
2013-08-26 12:29:00,71.0,64.0,30.02,West,265,0.0,-999.0,79,-99.99,,,-99.99,,2013-08-26 16:29:00,
2013-08-26 12:59:00,71.0,64.0,30.01,SSW,202,0.0,-999.0,79,-99.99,,,-99.99,,2013-08-26 16:59:00,
2013-08-26 13:24:00,71.0,65.0,30.00,SSW,195,0.0,-999.0,82,-99.99,,,-99.99,,2013-08-26 17:24:00,
2013-08-26 13:53:00,72.0,66.0,29.98,SW,227,0.0,-999.0,81,-99.99,,,-99.99,,2013-08-26 17:53:00,
2013-08-26 14:12:00,73.0,66.0,29.97,North,349,0.0,-999.0,80,-99.99,,,-99.99,,2013-08-26 18:12:00,
2013-08-26 14:22:00,73.0,66.0,29.96,WSW,257,0.0,-999.0,78,-99.99,,,-99.99,,2013-08-26 18:22:00,
2013-08-26 14:52:00,75.0,66.0,29.95,NW,318,0.0,-999.0,74,-99.99,,,-99.99,,2013-08-26 18:52:00,
2013-08-26 15:11:00,76.0,67.0,29.95,NNW,329,0.0,-999.0,74,-99.99,,,-99.99,,2013-08-26 19:11:00,
2013-08-26 15:22:00,76.0,67.0,29.94,North,10,0.0,-999.0,75,-99.99,,,-99.99,,2013-08-26 19:22:00,
2013-08-26 15:52:00,74.0,66.0,29.95,NW,313,0.0,-999.0,77,-99.99,,,-99.99,,2013-08-26 19:52:00,
2013-08-26 16:11:00,74.0,67.0,29.95,NW,313,0.0,-999.0,79,-99.99,,,-99.99,,2013-08-26 20:11:00,
2013-08-26 16:22:00,73.0,67.0,29.94,SSW,213,0.0,-999.0,82,-99.99,,,-99.99,,2013-08-26 20:22:00,
2013-08-26 16:52:00,71.0,66.0,29.91,SW,216,0.0,-999.0,84,-99.99,,,-99.99,,2013-08-26 20:52:00,
2013-08-26 17:22:00,71.0,68.0,29.90,SSW,202,0.0,-999.0,89,-99.99,,,-99.99,,2013-08-26 21:22:00,
2013-08-26 17:55:00,70.0,67.0,29.91,SSW,202,0.0,-999.0,89,-99.99,,,-99.99,,2013-08-26 21:55:00,
2013-08-26 18:26:00,70.0,67.0,29.91,SSW,200,0.0,-999.0,89,-99.99,,,-99.99,,2013-08-26 22:26:00,
2013-08-26 18:53:00,70.0,67.0,29.89,WSW,241,0.0,-999.0,90,-99.99,,,-99.99,,2013-08-26 22:53:00,
2013-08-26 19:22:00,69.0,66.0,29.90,SW,223,0.0,-999.0,91,-99.99,,,-99.99,,2013-08-26 23:22:00,
2013-08-26 19:52:00,69.0,65.0,29.90,SSW,205,0.0,-999.0,88,-99.99,,,-99.99,,2013-08-26 23:52:00,
2013-08-26 20:21:00,68.0,65.0,29.88,SSW,205,0.0,-999.0,91,-99.99,,,-99.99,,2013-08-27 00:21:00,
2013-08-26 20:52:00,68.0,66.0,29.90,SSW,205,0.0,-999.0,93,-99.99,,,-99.99,,2013-08-27 00:52:00,
2013-08-26 21:22:00,68.0,66.0,29.90,SSW,205,0.0,-999.0,93,-99.99,,,-99.99,,2013-08-27 01:22:00,
2013-08-26 21:52:00,67.0,65.0,29.92,SSW,205,0.0,-999.0,94,-99.99,,,-99.99,,2013-08-27 01:52:00,
2013-08-26 22:22:00,67.0,66.0,29.92,SSW,205,0.0,-999.0,96,-99.99,,,-99.99,,2013-08-27 02:22:00,